<?xml version="1.0" encoding="UTF-8" standalone="no" ?><gpx xmlns="http://www.topografix.com/GPX/1/1" xmlns:gpxx="http://www.garmin.com/xmlschemas/GpxExtensions/v3" xmlns:wptx1="http://www.garmin.com/xmlschemas/WaypointExtension/v1" xmlns:gpxtpx="http://www.garmin.com/xmlschemas/TrackPointExtension/v1" creator="GuideVTT.com" version="1.1" xmlns:xsi="http://www.w3.org/2001/XMLSchema-instance" xsi:schemaLocation="http://www.topografix.com/GPX/1/1 http://www.topografix.com/GPX/1/1/gpx.xsd http://www.garmin.com/xmlschemas/GpxExtensions/v3 http://www8.garmin.com/xmlschemas/GpxExtensionsv3.xsd http://www.garmin.com/xmlschemas/WaypointExtension/v1 http://www8.garmin.com/xmlschemas/WaypointExtensionv1.xsd http://www.garmin.com/xmlschemas/TrackPointExtension/v1 http://www.garmin.com/xmlschemas/TrackPointExtensionv1.xsd">
<metadata><link href="http://www.garmin.com"><text>Garmin International</text></link><time>2013-06-22T15:13:50Z</time></metadata>
<trk><name>la_clape_test_29kms.gpx</name><extensions><gpxx:TrackExtension><gpxx:DisplayColor>Cyan</gpxx:DisplayColor></gpxx:TrackExtension></extensions><trkseg>
<trkpt lat="43.124021021649241" lon="3.095646975561976"><ele></ele><time>2017-11-3T18:51:33Z</time></trkpt>
<trkpt lat="43.124082963913679" lon="3.095375988632441"><ele></ele><time>2017-11-3T18:51:36Z</time></trkpt>
<trkpt lat="43.124356968328357" lon="3.095203991979361"><ele></ele><time>2017-11-3T18:51:39Z</time></trkpt>
<trkpt lat="43.124776985496283" lon="3.095126040279865"><ele></ele><time>2017-11-3T18:51:42Z</time></trkpt>
<trkpt lat="43.126136027276516" lon="3.095303988084197"><ele></ele><time>2017-11-3T18:51:45Z</time></trkpt>
<trkpt lat="43.12610300257802" lon="3.095423011109233"><ele></ele><time>2017-11-3T18:51:48Z</time></trkpt>
<trkpt lat="43.126312969252467" lon="3.095571035519242"><ele></ele><time>2017-11-3T18:51:51Z</time></trkpt>
<trkpt lat="43.126061009243131" lon="3.096078978851438"><ele></ele><time>2017-11-3T18:51:54Z</time></trkpt>
<trkpt lat="43.125839978456497" lon="3.096386007964611"><ele></ele><time>2017-11-3T18:51:57Z</time></trkpt>
<trkpt lat="43.125559017062187" lon="3.096526991575956"><ele></ele><time>2017-11-3T18:52:0Z</time></trkpt>
<trkpt lat="43.125422978773713" lon="3.097360990941525"><ele></ele><time>2017-11-3T18:52:3Z</time></trkpt>
<trkpt lat="43.125422978773713" lon="3.098085019737482"><ele></ele><time>2017-11-3T18:52:6Z</time></trkpt>
<trkpt lat="43.12528601847589" lon="3.099267035722733"><ele></ele><time>2017-11-3T18:52:9Z</time></trkpt>
<trkpt lat="43.125442005693913" lon="3.099524024873972"><ele></ele><time>2017-11-3T18:52:12Z</time></trkpt>
<trkpt lat="43.125314014032483" lon="3.10033698566258"><ele></ele><time>2017-11-3T18:52:15Z</time></trkpt>
<trkpt lat="43.125020982697606" lon="3.101235022768378"><ele></ele><time>2017-11-3T18:52:18Z</time></trkpt>
<trkpt lat="43.125103041529655" lon="3.101770039647818"><ele></ele><time>2017-11-3T18:52:21Z</time></trkpt>
<trkpt lat="43.12509398907423" lon="3.103189012035728"><ele></ele><time>2017-11-3T18:52:24Z</time></trkpt>
<trkpt lat="43.125648032873869" lon="3.1031300034374"><ele></ele><time>2017-11-3T18:52:27Z</time></trkpt>
<trkpt lat="43.125961013138294" lon="3.103178031742573"><ele></ele><time>2017-11-3T18:52:30Z</time></trkpt>
<trkpt lat="43.126072995364666" lon="3.103940030559897"><ele></ele><time>2017-11-3T18:52:33Z</time></trkpt>
<trkpt lat="43.125804020091891" lon="3.104915013536811"><ele></ele><time>2017-11-3T18:52:36Z</time></trkpt>
<trkpt lat="43.12577803619206" lon="3.105196980759502"><ele></ele><time>2017-11-3T18:52:39Z</time></trkpt>
<trkpt lat="43.126247003674507" lon="3.105504009872675"><ele></ele><time>2017-11-3T18:52:42Z</time></trkpt>
<trkpt lat="43.127065999433398" lon="3.10506303794682"><ele></ele><time>2017-11-3T18:52:45Z</time></trkpt>
<trkpt lat="43.127303961664438" lon="3.105006963014603"><ele></ele><time>2017-11-3T18:52:48Z</time></trkpt>
<trkpt lat="43.127504959702492" lon="3.105049962177873"><ele></ele><time>2017-11-3T18:52:51Z</time></trkpt>
<trkpt lat="43.127646027132869" lon="3.105339976027608"><ele></ele><time>2017-11-3T18:52:54Z</time></trkpt>
<trkpt lat="43.127649966627359" lon="3.106140028685331"><ele></ele><time>2017-11-3T18:52:57Z</time></trkpt>
<trkpt lat="43.127792961895466" lon="3.106491984799504"><ele></ele><time>2017-11-3T18:53:0Z</time></trkpt>
<trkpt lat="43.127907961606979" lon="3.106636991724372"><ele></ele><time>2017-11-3T18:53:3Z</time></trkpt>
<trkpt lat="43.128799963742495" lon="3.10686900280416"><ele></ele><time>2017-11-3T18:53:6Z</time></trkpt>
<trkpt lat="43.128973972052336" lon="3.106849975883961"><ele></ele><time>2017-11-3T18:53:9Z</time></trkpt>
<trkpt lat="43.129389965906739" lon="3.106985008344054"><ele></ele><time>2017-11-3T18:53:12Z</time></trkpt>
<trkpt lat="43.129596998915076" lon="3.107110988348723"><ele></ele><time>2017-11-3T18:53:15Z</time></trkpt>
<trkpt lat="43.129645027220249" lon="3.107316009700298"><ele></ele><time>2017-11-3T18:53:18Z</time></trkpt>
<trkpt lat="43.129456015303731" lon="3.1075559835881"><ele></ele><time>2017-11-3T18:53:21Z</time></trkpt>
<trkpt lat="43.129364987835288" lon="3.107827976346016"><ele></ele><time>2017-11-3T18:53:24Z</time></trkpt>
<trkpt lat="43.129035998135805" lon="3.107936019077897"><ele></ele><time>2017-11-3T18:53:27Z</time></trkpt>
<trkpt lat="43.129030968993902" lon="3.107758993282914"><ele></ele><time>2017-11-3T18:53:30Z</time></trkpt>
<trkpt lat="43.128786971792579" lon="3.107767961919308"><ele></ele><time>2017-11-3T18:53:33Z</time></trkpt>
<trkpt lat="43.128142990171909" lon="3.108293004333973"><ele></ele><time>2017-11-3T18:53:36Z</time></trkpt>
<trkpt lat="43.128039976581931" lon="3.108699023723602"><ele></ele><time>2017-11-3T18:53:39Z</time></trkpt>
<trkpt lat="43.127933023497462" lon="3.108778987079859"><ele></ele><time>2017-11-3T18:53:42Z</time></trkpt>
<trkpt lat="43.127936962991953" lon="3.109053997322917"><ele></ele><time>2017-11-3T18:53:45Z</time></trkpt>
<trkpt lat="43.127814000472426" lon="3.109743995591998"><ele></ele><time>2017-11-3T18:53:48Z</time></trkpt>
<trkpt lat="43.127544019371271" lon="3.109826976433396"><ele></ele><time>2017-11-3T18:53:51Z</time></trkpt>
<trkpt lat="43.127355007454753" lon="3.109581973403692"><ele></ele><time>2017-11-3T18:53:54Z</time></trkpt>
<trkpt lat="43.127361964434385" lon="3.108966993167996"><ele></ele><time>2017-11-3T18:53:57Z</time></trkpt>
<trkpt lat="43.126958962529898" lon="3.108734982088208"><ele></ele><time>2017-11-3T18:54:0Z</time></trkpt>
<trkpt lat="43.126717982813716" lon="3.108476987108588"><ele></ele><time>2017-11-3T18:54:3Z</time></trkpt>
<trkpt lat="43.126592002809048" lon="3.108576983213425"><ele></ele><time>2017-11-3T18:54:6Z</time></trkpt>
<trkpt lat="43.126594014465809" lon="3.109154999256134"><ele></ele><time>2017-11-3T18:54:9Z</time></trkpt>
<trkpt lat="43.126839017495513" lon="3.110396023839712"><ele></ele><time>2017-11-3T18:54:12Z</time></trkpt>
<trkpt lat="43.127044960856438" lon="3.110988959670067"><ele></ele><time>2017-11-3T18:54:15Z</time></trkpt>
<trkpt lat="43.127323994413018" lon="3.111270004883409"><ele></ele><time>2017-11-3T18:54:18Z</time></trkpt>
<trkpt lat="43.127380991354585" lon="3.111800998449326"><ele></ele><time>2017-11-3T18:54:21Z</time></trkpt>
<trkpt lat="43.127380991354585" lon="3.111518025398254"><ele></ele><time>2017-11-3T18:54:24Z</time></trkpt>
<trkpt lat="43.127643009647727" lon="3.111387016251683"><ele></ele><time>2017-11-3T18:54:27Z</time></trkpt>
<trkpt lat="43.127990020439029" lon="3.111288025975227"><ele></ele><time>2017-11-3T18:54:30Z</time></trkpt>
<trkpt lat="43.128730980679393" lon="3.110910002142191"><ele></ele><time>2017-11-3T18:54:33Z</time></trkpt>
<trkpt lat="43.129124008119106" lon="3.110855016857386"><ele></ele><time>2017-11-3T18:54:36Z</time></trkpt>
<trkpt lat="43.129475964233279" lon="3.110872032120824"><ele></ele><time>2017-11-3T18:54:39Z</time></trkpt>
<trkpt lat="43.129743011668324" lon="3.110980996862054"><ele></ele><time>2017-11-3T18:54:42Z</time></trkpt>
<trkpt lat="43.12984200194478" lon="3.110942021012306"><ele></ele><time>2017-11-3T18:54:45Z</time></trkpt>
<trkpt lat="43.130105026066303" lon="3.110462995246053"><ele></ele><time>2017-11-3T18:54:48Z</time></trkpt>
<trkpt lat="43.130074013024569" lon="3.110548993572593"><ele></ele><time>2017-11-3T18:54:51Z</time></trkpt>
<trkpt lat="43.129851976409554" lon="3.110411027446389"><ele></ele><time>2017-11-3T18:54:54Z</time></trkpt>
<trkpt lat="43.129838984459639" lon="3.110309019684792"><ele></ele><time>2017-11-3T18:54:57Z</time></trkpt>
<trkpt lat="43.129621976986527" lon="3.110317988321185"><ele></ele><time>2017-11-3T18:55:0Z</time></trkpt>
<trkpt lat="43.12934503890574" lon="3.1102429702878"><ele></ele><time>2017-11-3T18:55:3Z</time></trkpt>
<trkpt lat="43.128889985382557" lon="3.109944993630052"><ele></ele><time>2017-11-3T18:55:6Z</time></trkpt>
<trkpt lat="43.128342982381582" lon="3.109843991696835"><ele></ele><time>2017-11-3T18:55:9Z</time></trkpt>
<trkpt lat="43.128329990431666" lon="3.109881039708853"><ele></ele><time>2017-11-3T18:55:12Z</time></trkpt>
<trkpt lat="43.128330996260047" lon="3.109302017837763"><ele></ele><time>2017-11-3T18:55:15Z</time></trkpt>
<trkpt lat="43.128439038991928" lon="3.109179977327585"><ele></ele><time>2017-11-3T18:55:18Z</time></trkpt>
<trkpt lat="43.128709020093083" lon="3.109229011461139"><ele></ele><time>2017-11-3T18:55:21Z</time></trkpt>
<trkpt lat="43.128905994817615" lon="3.108938997611404"><ele></ele><time>2017-11-3T18:55:24Z</time></trkpt>
<trkpt lat="43.129160972312093" lon="3.108736993744969"><ele></ele><time>2017-11-3T18:55:27Z</time></trkpt>
<trkpt lat="43.129357025027275" lon="3.108438011258841"><ele></ele><time>2017-11-3T18:55:30Z</time></trkpt>
<trkpt lat="43.129566991701722" lon="3.108303984627128"><ele></ele><time>2017-11-3T18:55:33Z</time></trkpt>
<trkpt lat="43.129992038011551" lon="3.107648016884923"><ele></ele><time>2017-11-3T18:55:36Z</time></trkpt>
<trkpt lat="43.130187001079321" lon="3.107623038813472"><ele></ele><time>2017-11-3T18:55:39Z</time></trkpt>
<trkpt lat="43.130466034635901" lon="3.107752958312631"><ele></ele><time>2017-11-3T18:55:42Z</time></trkpt>
<trkpt lat="43.131013959646225" lon="3.108527027070522"><ele></ele><time>2017-11-3T18:55:45Z</time></trkpt>
<trkpt lat="43.131243959069252" lon="3.108720984309912"><ele></ele><time>2017-11-3T18:55:48Z</time></trkpt>
<trkpt lat="43.131467001512647" lon="3.108821986243129"><ele></ele><time>2017-11-3T18:55:51Z</time></trkpt>
<trkpt lat="43.131692977622151" lon="3.109006974846125"><ele></ele><time>2017-11-3T18:55:54Z</time></trkpt>
<trkpt lat="43.131938986480236" lon="3.109070006757975"><ele></ele><time>2017-11-3T18:55:57Z</time></trkpt>
<trkpt lat="43.132768962532282" lon="3.109655985608697"><ele></ele><time>2017-11-3T18:56:0Z</time></trkpt>
<trkpt lat="43.133238013833761" lon="3.110226960852742"><ele></ele><time>2017-11-3T18:56:3Z</time></trkpt>
<trkpt lat="43.133165007457137" lon="3.110560979694128"><ele></ele><time>2017-11-3T18:56:6Z</time></trkpt>
<trkpt lat="43.133015977218747" lon="3.110702969133854"><ele></ele><time>2017-11-3T18:56:9Z</time></trkpt>
<trkpt lat="43.132701991125941" lon="3.111298000440002"><ele></ele><time>2017-11-3T18:56:12Z</time></trkpt>
<trkpt lat="43.132692016661167" lon="3.111566975712776"><ele></ele><time>2017-11-3T18:56:15Z</time></trkpt>
<trkpt lat="43.132567964494228" lon="3.111800998449326"><ele></ele><time>2017-11-3T18:56:18Z</time></trkpt>
<trkpt lat="43.132578022778034" lon="3.111665965989232"><ele></ele><time>2017-11-3T18:56:21Z</time></trkpt>
<trkpt lat="43.132474003359675" lon="3.111637970432639"><ele></ele><time>2017-11-3T18:56:24Z</time></trkpt>
<trkpt lat="43.132191030308604" lon="3.11211196705699"><ele></ele><time>2017-11-3T18:56:27Z</time></trkpt>
<trkpt lat="43.1318199634552" lon="3.112458977848291"><ele></ele><time>2017-11-3T18:56:30Z</time></trkpt>
<trkpt lat="43.131717033684254" lon="3.112459983676672"><ele></ele><time>2017-11-3T18:56:33Z</time></trkpt>
<trkpt lat="43.131632041186094" lon="3.112312965095043"><ele></ele><time>2017-11-3T18:56:36Z</time></trkpt>
<trkpt lat="43.131510000675917" lon="3.112395023927093"><ele></ele><time>2017-11-3T18:56:39Z</time></trkpt>
<trkpt lat="43.131243959069252" lon="3.113272022455931"><ele></ele><time>2017-11-3T18:56:42Z</time></trkpt>
<trkpt lat="43.13104203902185" lon="3.113536974415183"><ele></ele><time>2017-11-3T18:56:45Z</time></trkpt>
<trkpt lat="43.130925027653575" lon="3.113237991929054"><ele></ele><time>2017-11-3T18:56:48Z</time></trkpt>
<trkpt lat="43.130868030712008" lon="3.112517986446619"><ele></ele><time>2017-11-3T18:56:51Z</time></trkpt>
<trkpt lat="43.130638031288981" lon="3.112641032785177"><ele></ele><time>2017-11-3T18:56:54Z</time></trkpt>
<trkpt lat="43.130432004109025" lon="3.112989971414208"><ele></ele><time>2017-11-3T18:56:57Z</time></trkpt>
<trkpt lat="43.130288003012538" lon="3.11337998136878"><ele></ele><time>2017-11-3T18:57:0Z</time></trkpt>
<trkpt lat="43.129915008321404" lon="3.11355097219348"><ele></ele><time>2017-11-3T18:57:3Z</time></trkpt>
<trkpt lat="43.129439000040293" lon="3.113499004393816"><ele></ele><time>2017-11-3T18:57:6Z</time></trkpt>
<trkpt lat="43.129183016717434" lon="3.113327007740736"><ele></ele><time>2017-11-3T18:57:9Z</time></trkpt>
<trkpt lat="43.128790995106101" lon="3.113162973895669"><ele></ele><time>2017-11-3T18:57:12Z</time></trkpt>
<trkpt lat="43.12861799262464" lon="3.113189963623881"><ele></ele><time>2017-11-3T18:57:15Z</time></trkpt>
<trkpt lat="43.128503998741508" lon="3.113548960536718"><ele></ele><time>2017-11-3T18:57:18Z</time></trkpt>
<trkpt lat="43.128647999837995" lon="3.113876022398472"><ele></ele><time>2017-11-3T18:57:21Z</time></trkpt>
<trkpt lat="43.128753025084734" lon="3.114347001537681"><ele></ele><time>2017-11-3T18:57:24Z</time></trkpt>
<trkpt lat="43.128954023122787" lon="3.114797025918961"><ele></ele><time>2017-11-3T18:57:27Z</time></trkpt>
<trkpt lat="43.129115039482713" lon="3.114866008982062"><ele></ele><time>2017-11-3T18:57:30Z</time></trkpt>
<trkpt lat="43.129403963685036" lon="3.114635003730655"><ele></ele><time>2017-11-3T18:57:33Z</time></trkpt>
<trkpt lat="43.129546036943793" lon="3.114703986793757"><ele></ele><time>2017-11-3T18:57:36Z</time></trkpt>
<trkpt lat="43.129661958664656" lon="3.115315027534962"><ele></ele><time>2017-11-3T18:57:39Z</time></trkpt>
<trkpt lat="43.129753991961479" lon="3.115292983129621"><ele></ele><time>2017-11-3T18:57:42Z</time></trkpt>
<trkpt lat="43.130354974418879" lon="3.114789985120297"><ele></ele><time>2017-11-3T18:57:45Z</time></trkpt>
<trkpt lat="43.130889991298318" lon="3.114840025082231"><ele></ele><time>2017-11-3T18:57:48Z</time></trkpt>
<trkpt lat="43.13104597851634" lon="3.114694012328982"><ele></ele><time>2017-11-3T18:57:51Z</time></trkpt>
<trkpt lat="43.131189979612827" lon="3.114671967923641"><ele></ele><time>2017-11-3T18:57:54Z</time></trkpt>
<trkpt lat="43.131333980709314" lon="3.114704992622137"><ele></ele><time>2017-11-3T18:57:57Z</time></trkpt>
<trkpt lat="43.131674034520984" lon="3.115531029179692"><ele></ele><time>2017-11-3T18:58:0Z</time></trkpt>
<trkpt lat="43.131697000935674" lon="3.116435017436743"><ele></ele><time>2017-11-3T18:58:3Z</time></trkpt>
<trkpt lat="43.131593987345695" lon="3.116478016600013"><ele></ele><time>2017-11-3T18:58:6Z</time></trkpt>
<trkpt lat="43.131632963195443" lon="3.116658981889486"><ele></ele><time>2017-11-3T18:58:9Z</time></trkpt>
<trkpt lat="43.131704963743687" lon="3.116651019081473"><ele></ele><time>2017-11-3T18:58:12Z</time></trkpt>
<trkpt lat="43.131741005927324" lon="3.116756966337562"><ele></ele><time>2017-11-3T18:58:15Z</time></trkpt>
<trkpt lat="43.131541013717651" lon="3.117649974301457"><ele></ele><time>2017-11-3T18:58:18Z</time></trkpt>
<trkpt lat="43.13119500875473" lon="3.118224972859025"><ele></ele><time>2017-11-3T18:58:21Z</time></trkpt>
<trkpt lat="43.131047990173101" lon="3.118738029152155"><ele></ele><time>2017-11-3T18:58:24Z</time></trkpt>
<trkpt lat="43.131071962416172" lon="3.118880018591881"><ele></ele><time>2017-11-3T18:58:27Z</time></trkpt>
<trkpt lat="43.131483010947704" lon="3.119304981082678"><ele></ele><time>2017-11-3T18:58:30Z</time></trkpt>
<trkpt lat="43.131673028692603" lon="3.120133029296994"><ele></ele><time>2017-11-3T18:58:33Z</time></trkpt>
<trkpt lat="43.131906967610121" lon="3.120247023180127"><ele></ele><time>2017-11-3T18:58:36Z</time></trkpt>
<trkpt lat="43.131952984258533" lon="3.120140992105007"><ele></ele><time>2017-11-3T18:58:39Z</time></trkpt>
<trkpt lat="43.131791967898607" lon="3.119204984977841"><ele></ele><time>2017-11-3T18:58:42Z</time></trkpt>
<trkpt lat="43.131828010082245" lon="3.118739034980536"><ele></ele><time>2017-11-3T18:58:45Z</time></trkpt>
<trkpt lat="43.132172003388405" lon="3.11771702952683"><ele></ele><time>2017-11-3T18:58:48Z</time></trkpt>
<trkpt lat="43.132346011698246" lon="3.11743900179863"><ele></ele><time>2017-11-3T18:58:51Z</time></trkpt>
<trkpt lat="43.132470985874534" lon="3.116692006587982"><ele></ele><time>2017-11-3T18:58:54Z</time></trkpt>
<trkpt lat="43.132452964782715" lon="3.116729976609349"><ele></ele><time>2017-11-3T18:58:57Z</time></trkpt>
<trkpt lat="43.132422035560012" lon="3.116711033508182"><ele></ele><time>2017-11-3T18:59:0Z</time></trkpt>
<trkpt lat="43.132681958377361" lon="3.116132011637092"><ele></ele><time>2017-11-3T18:59:3Z</time></trkpt>
<trkpt lat="43.132954034954309" lon="3.11438899487257"><ele></ele><time>2017-11-3T18:59:6Z</time></trkpt>
<trkpt lat="43.133404981344938" lon="3.113361960276961"><ele></ele><time>2017-11-3T18:59:9Z</time></trkpt>
<trkpt lat="43.133824998512864" lon="3.112870026379824"><ele></ele><time>2017-11-3T18:59:12Z</time></trkpt>
<trkpt lat="43.134398991242051" lon="3.11172204092145"><ele></ele><time>2017-11-3T18:59:15Z</time></trkpt>
<trkpt lat="43.13463200815022" lon="3.11146798543632"><ele></ele><time>2017-11-3T18:59:18Z</time></trkpt>
<trkpt lat="43.134748013690114" lon="3.1114880181849"><ele></ele><time>2017-11-3T18:59:21Z</time></trkpt>
<trkpt lat="43.134705014526844" lon="3.11180803924799"><ele></ele><time>2017-11-3T18:59:24Z</time></trkpt>
<trkpt lat="43.134495969861746" lon="3.112285975366831"><ele></ele><time>2017-11-3T18:59:27Z</time></trkpt>
<trkpt lat="43.134435033425689" lon="3.112746980041266"><ele></ele><time>2017-11-3T18:59:30Z</time></trkpt>
<trkpt lat="43.134652962908149" lon="3.112973961979151"><ele></ele><time>2017-11-3T18:59:33Z</time></trkpt>
<trkpt lat="43.135006008669734" lon="3.112658970057964"><ele></ele><time>2017-11-3T18:59:36Z</time></trkpt>
<trkpt lat="43.134729992598295" lon="3.113506967201829"><ele></ele><time>2017-11-3T18:59:39Z</time></trkpt>
<trkpt lat="43.134939959272742" lon="3.113797986879945"><ele></ele><time>2017-11-3T18:59:42Z</time></trkpt>
<trkpt lat="43.135265009477735" lon="3.113661026582122"><ele></ele><time>2017-11-3T18:59:45Z</time></trkpt>
<trkpt lat="43.135519986972213" lon="3.113821959123015"><ele></ele><time>2017-11-3T18:59:48Z</time></trkpt>
<trkpt lat="43.135543037205935" lon="3.11402396298945"><ele></ele><time>2017-11-3T18:59:51Z</time></trkpt>
<trkpt lat="43.135460978373885" lon="3.114210963249207"><ele></ele><time>2017-11-3T18:59:54Z</time></trkpt>
<trkpt lat="43.134647011756897" lon="3.115004980936647"><ele></ele><time>2017-11-3T18:59:57Z</time></trkpt>
<trkpt lat="43.134924033656716" lon="3.116317000240088"><ele></ele><time>2017-11-3T19:0:0Z</time></trkpt>
<trkpt lat="43.1349110417068" lon="3.116691000759602"><ele></ele><time>2017-11-3T19:0:3Z</time></trkpt>
<trkpt lat="43.135271966457367" lon="3.117218976840377"><ele></ele><time>2017-11-3T19:0:6Z</time></trkpt>
<trkpt lat="43.135135006159544" lon="3.11763103120029"><ele></ele><time>2017-11-3T19:0:9Z</time></trkpt>
<trkpt lat="43.1350820325315" lon="3.118090024217963"><ele></ele><time>2017-11-3T19:0:12Z</time></trkpt>
<trkpt lat="43.134929984807968" lon="3.118407027795911"><ele></ele><time>2017-11-3T19:0:15Z</time></trkpt>
<trkpt lat="43.134422963485122" lon="3.118466036394239"><ele></ele><time>2017-11-3T19:0:18Z</time></trkpt>
<trkpt lat="43.134488007053733" lon="3.11857801862061"><ele></ele><time>2017-11-3T19:0:21Z</time></trkpt>
<trkpt lat="43.135130982846022" lon="3.118625041097403"><ele></ele><time>2017-11-3T19:0:24Z</time></trkpt>
<trkpt lat="43.135409010574222" lon="3.118740040808916"><ele></ele><time>2017-11-3T19:0:27Z</time></trkpt>
<trkpt lat="43.135702963918447" lon="3.118593022227287"><ele></ele><time>2017-11-3T19:0:30Z</time></trkpt>
<trkpt lat="43.135994989424944" lon="3.118286998942494"><ele></ele><time>2017-11-3T19:0:33Z</time></trkpt>
<trkpt lat="43.136190036311746" lon="3.11793303117156"><ele></ele><time>2017-11-3T19:0:36Z</time></trkpt>
<trkpt lat="43.136393968015909" lon="3.116870960220695"><ele></ele><time>2017-11-3T19:0:39Z</time></trkpt>
<trkpt lat="43.136536041274667" lon="3.116640038788319"><ele></ele><time>2017-11-3T19:0:42Z</time></trkpt>
<trkpt lat="43.136915992945433" lon="3.116327980533242"><ele></ele><time>2017-11-3T19:0:45Z</time></trkpt>
<trkpt lat="43.136926973238587" lon="3.116167970001698"><ele></ele><time>2017-11-3T19:0:48Z</time></trkpt>
<trkpt lat="43.136048968881369" lon="3.116055987775326"><ele></ele><time>2017-11-3T19:0:51Z</time></trkpt>
<trkpt lat="43.135980991646647" lon="3.115734038874507"><ele></ele><time>2017-11-3T19:0:54Z</time></trkpt>
<trkpt lat="43.136108983308077" lon="3.115530023351312"><ele></ele><time>2017-11-3T19:0:57Z</time></trkpt>
<trkpt lat="43.136547021567822" lon="3.115343023091555"><ele></ele><time>2017-11-3T19:1:0Z</time></trkpt>
<trkpt lat="43.137015989050269" lon="3.115225005894899"><ele></ele><time>2017-11-3T19:1:3Z</time></trkpt>
<trkpt lat="43.137844037264585" lon="3.115356015041471"><ele></ele><time>2017-11-3T19:1:6Z</time></trkpt>
<trkpt lat="43.138063978403807" lon="3.115347968414426"><ele></ele><time>2017-11-3T19:1:9Z</time></trkpt>
<trkpt lat="43.138209991157055" lon="3.114940021187067"><ele></ele><time>2017-11-3T19:1:12Z</time></trkpt>
<trkpt lat="43.138294983655214" lon="3.114069979637861"><ele></ele><time>2017-11-3T19:1:15Z</time></trkpt>
<trkpt lat="43.138058027252555" lon="3.113740989938378"><ele></ele><time>2017-11-3T19:1:18Z</time></trkpt>
<trkpt lat="43.137783017009497" lon="3.113665971904993"><ele></ele><time>2017-11-3T19:1:21Z</time></trkpt>
<trkpt lat="43.137380015105009" lon="3.113367995247245"><ele></ele><time>2017-11-3T19:1:24Z</time></trkpt>
<trkpt lat="43.13729502260685" lon="3.112782016396523"><ele></ele><time>2017-11-3T19:1:27Z</time></trkpt>
<trkpt lat="43.137325029820204" lon="3.112336015328765"><ele></ele><time>2017-11-3T19:1:30Z</time></trkpt>
<trkpt lat="43.137093018740416" lon="3.11245596036315"><ele></ele><time>2017-11-3T19:1:33Z</time></trkpt>
<trkpt lat="43.137090001255274" lon="3.112859968096018"><ele></ele><time>2017-11-3T19:1:36Z</time></trkpt>
<trkpt lat="43.136895038187504" lon="3.112636003643274"><ele></ele><time>2017-11-3T19:1:39Z</time></trkpt>
<trkpt lat="43.136627990752459" lon="3.112609013915062"><ele></ele><time>2017-11-3T19:1:42Z</time></trkpt>
<trkpt lat="43.136599995195866" lon="3.112435005605221"><ele></ele><time>2017-11-3T19:1:45Z</time></trkpt>
<trkpt lat="43.136396985501051" lon="3.112396029755473"><ele></ele><time>2017-11-3T19:1:48Z</time></trkpt>
<trkpt lat="43.135926006361842" lon="3.11279802583158"><ele></ele><time>2017-11-3T19:1:51Z</time></trkpt>
<trkpt lat="43.135936986654997" lon="3.112443974241614"><ele></ele><time>2017-11-3T19:1:54Z</time></trkpt>
<trkpt lat="43.136033965274692" lon="3.112216992303729"><ele></ele><time>2017-11-3T19:1:57Z</time></trkpt>
<trkpt lat="43.137085977941751" lon="3.110890975221992"><ele></ele><time>2017-11-3T19:2:0Z</time></trkpt>
<trkpt lat="43.137165019288659" lon="3.110502976924181"><ele></ele><time>2017-11-3T19:2:3Z</time></trkpt>
<trkpt lat="43.137299967929721" lon="3.11019703745842"><ele></ele><time>2017-11-3T19:2:6Z</time></trkpt>
<trkpt lat="43.137440029531717" lon="3.11002898029983"><ele></ele><time>2017-11-3T19:2:9Z</time></trkpt>
<trkpt lat="43.137500965967774" lon="3.109710970893502"><ele></ele><time>2017-11-3T19:2:12Z</time></trkpt>
<trkpt lat="43.137654019519687" lon="3.109493963420391"><ele></ele><time>2017-11-3T19:2:15Z</time></trkpt>
<trkpt lat="43.137741023674607" lon="3.109447024762631"><ele></ele><time>2017-11-3T19:2:18Z</time></trkpt>
<trkpt lat="43.137759966775775" lon="3.109309980645776"><ele></ele><time>2017-11-3T19:2:21Z</time></trkpt>
<trkpt lat="43.137528961524367" lon="3.108845958486199"><ele></ele><time>2017-11-3T19:2:24Z</time></trkpt>
<trkpt lat="43.137383032590151" lon="3.10888996347785"><ele></ele><time>2017-11-3T19:2:27Z</time></trkpt>
<trkpt lat="43.137062005698681" lon="3.108729030936956"><ele></ele><time>2017-11-3T19:2:30Z</time></trkpt>
<trkpt lat="43.136950023472309" lon="3.108529960736632"><ele></ele><time>2017-11-3T19:2:33Z</time></trkpt>
<trkpt lat="43.13678196631372" lon="3.108405992388725"><ele></ele><time>2017-11-3T19:2:36Z</time></trkpt>
<trkpt lat="43.136426992714405" lon="3.107908023521304"><ele></ele><time>2017-11-3T19:2:39Z</time></trkpt>
<trkpt lat="43.136271005496383" lon="3.107992010191083"><ele></ele><time>2017-11-3T19:2:42Z</time></trkpt>
<trkpt lat="43.136061960831285" lon="3.107965020462871"><ele></ele><time>2017-11-3T19:2:45Z</time></trkpt>
<trkpt lat="43.135772030800581" lon="3.107997039332986"><ele></ele><time>2017-11-3T19:2:48Z</time></trkpt>
<trkpt lat="43.13555602915585" lon="3.108230978250504"><ele></ele><time>2017-11-3T19:2:51Z</time></trkpt>
<trkpt lat="43.135440023615956" lon="3.10858603566885"><ele></ele><time>2017-11-3T19:2:54Z</time></trkpt>
<trkpt lat="43.135456033051014" lon="3.108920976519585"><ele></ele><time>2017-11-3T19:2:57Z</time></trkpt>
<trkpt lat="43.135225027799606" lon="3.109071012586355"><ele></ele><time>2017-11-3T19:3:0Z</time></trkpt>
<trkpt lat="43.134736027568579" lon="3.109204033389688"><ele></ele><time>2017-11-3T19:3:3Z</time></trkpt>
<trkpt lat="43.134521031752229" lon="3.109186012297869"><ele></ele><time>2017-11-3T19:3:6Z</time></trkpt>
<trkpt lat="43.134470991790295" lon="3.109539980068803"><ele></ele><time>2017-11-3T19:3:9Z</time></trkpt>
<trkpt lat="43.134379964321852" lon="3.109564958140254"><ele></ele><time>2017-11-3T19:3:12Z</time></trkpt>
<trkpt lat="43.134219031780958" lon="3.108997000381351"><ele></ele><time>2017-11-3T19:3:15Z</time></trkpt>
<trkpt lat="43.133844025433064" lon="3.108918964862824"><ele></ele><time>2017-11-3T19:3:18Z</time></trkpt>
<trkpt lat="43.133817035704851" lon="3.108634985983372"><ele></ele><time>2017-11-3T19:3:21Z</time></trkpt>
<trkpt lat="43.13321596942842" lon="3.108149003237486"><ele></ele><time>2017-11-3T19:3:24Z</time></trkpt>
<trkpt lat="43.132974989712238" lon="3.108099969103932"><ele></ele><time>2017-11-3T19:3:27Z</time></trkpt>
<trkpt lat="43.132582968100905" lon="3.107591019943357"><ele></ele><time>2017-11-3T19:3:30Z</time></trkpt>
<trkpt lat="43.132282979786396" lon="3.10746998526156"><ele></ele><time>2017-11-3T19:3:33Z</time></trkpt>
<trkpt lat="43.132178038358688" lon="3.107241997495294"><ele></ele><time>2017-11-3T19:3:36Z</time></trkpt>
<trkpt lat="43.132121963426471" lon="3.106680996716023"><ele></ele><time>2017-11-3T19:3:39Z</time></trkpt>
<trkpt lat="43.131893975660205" lon="3.106280006468296"><ele></ele><time>2017-11-3T19:3:42Z</time></trkpt>
<trkpt lat="43.131621982902288" lon="3.105955040082336"><ele></ele><time>2017-11-3T19:3:45Z</time></trkpt>
<trkpt lat="43.13063601963222" lon="3.105728980153799"><ele></ele><time>2017-11-3T19:3:48Z</time></trkpt>
<trkpt lat="43.13046402297914" lon="3.105896031484008"><ele></ele><time>2017-11-3T19:3:51Z</time></trkpt>
<trkpt lat="43.130284985527396" lon="3.105855965986848"><ele></ele><time>2017-11-3T19:3:54Z</time></trkpt>
<trkpt lat="43.130125980824232" lon="3.106144974008203"><ele></ele><time>2017-11-3T19:3:57Z</time></trkpt>
<trkpt lat="43.130042999982834" lon="3.106142040342093"><ele></ele><time>2017-11-3T19:4:0Z</time></trkpt>
<trkpt lat="43.129860023036599" lon="3.105960991233587"><ele></ele><time>2017-11-3T19:4:3Z</time></trkpt>
<trkpt lat="43.128987969830632" lon="3.105610962957144"><ele></ele><time>2017-11-3T19:4:6Z</time></trkpt>
<trkpt lat="43.128470974043012" lon="3.105957973748446"><ele></ele><time>2017-11-3T19:4:9Z</time></trkpt>
<trkpt lat="43.12837902456522" lon="3.105940036475658"><ele></ele><time>2017-11-3T19:4:12Z</time></trkpt>
<trkpt lat="43.128275005146861" lon="3.105365037918091"><ele></ele><time>2017-11-3T19:4:15Z</time></trkpt>
<trkpt lat="43.127958001568913" lon="3.104651989415288"><ele></ele><time>2017-11-3T19:4:18Z</time></trkpt>
<trkpt lat="43.127689026296139" lon="3.104521986097097"><ele></ele><time>2017-11-3T19:4:21Z</time></trkpt>
<trkpt lat="43.127550976350904" lon="3.104124013334513"><ele></ele><time>2017-11-3T19:4:24Z</time></trkpt>
<trkpt lat="43.127591041848063" lon="3.103929972276092"><ele></ele><time>2017-11-3T19:4:27Z</time></trkpt>
<trkpt lat="43.127746023237705" lon="3.10381799004972"><ele></ele><time>2017-11-3T19:4:30Z</time></trkpt>
<trkpt lat="43.128045005723834" lon="3.103815978392959"><ele></ele><time>2017-11-3T19:4:33Z</time></trkpt>
<trkpt lat="43.128410959616303" lon="3.104230966418982"><ele></ele><time>2017-11-3T19:4:36Z</time></trkpt>
<trkpt lat="43.128559989854693" lon="3.104258961975575"><ele></ele><time>2017-11-3T19:4:39Z</time></trkpt>
<trkpt lat="43.128586979582906" lon="3.104028040543199"><ele></ele><time>2017-11-3T19:4:42Z</time></trkpt>
<trkpt lat="43.128355974331498" lon="3.103812960907817"><ele></ele><time>2017-11-3T19:4:45Z</time></trkpt>
<trkpt lat="43.128383969888091" lon="3.103655967861414"><ele></ele><time>2017-11-3T19:4:48Z</time></trkpt>
<trkpt lat="43.128710025921464" lon="3.103348016738892"><ele></ele><time>2017-11-3T19:4:51Z</time></trkpt>
<trkpt lat="43.128770962357521" lon="3.103168979287148"><ele></ele><time>2017-11-3T19:4:54Z</time></trkpt>
<trkpt lat="43.12850902788341" lon="3.102641003206372"><ele></ele><time>2017-11-3T19:4:57Z</time></trkpt>
<trkpt lat="43.128497041761875" lon="3.102472024038434"><ele></ele><time>2017-11-3T19:5:0Z</time></trkpt>
<trkpt lat="43.128572981804609" lon="3.102407986298204"><ele></ele><time>2017-11-3T19:5:3Z</time></trkpt>
<trkpt lat="43.128539035096765" lon="3.102014036849141"><ele></ele><time>2017-11-3T19:5:6Z</time></trkpt>
<trkpt lat="43.128597037866712" lon="3.101843968033791"><ele></ele><time>2017-11-3T19:5:9Z</time></trkpt>
<trkpt lat="43.128438033163548" lon="3.101404001936317"><ele></ele><time>2017-11-3T19:5:12Z</time></trkpt>
<trkpt lat="43.128189006820321" lon="3.099972037598491"><ele></ele><time>2017-11-3T19:5:15Z</time></trkpt>
<trkpt lat="43.12833895906806" lon="3.099682023748756"><ele></ele><time>2017-11-3T19:5:18Z</time></trkpt>
<trkpt lat="43.128913035616279" lon="3.09934901073575"><ele></ele><time>2017-11-3T19:5:21Z</time></trkpt>
<trkpt lat="43.12889501452446" lon="3.099104007706046"><ele></ele><time>2017-11-3T19:5:24Z</time></trkpt>
<trkpt lat="43.128927033394575" lon="3.099185982719064"><ele></ele><time>2017-11-3T19:5:27Z</time></trkpt>
<trkpt lat="43.129051001742482" lon="3.099204003810883"><ele></ele><time>2017-11-3T19:5:30Z</time></trkpt>
<trkpt lat="43.128966009244323" lon="3.098384002223611"><ele></ele><time>2017-11-3T19:5:33Z</time></trkpt>
<trkpt lat="43.12872301787138" lon="3.097484959289432"><ele></ele><time>2017-11-3T19:5:36Z</time></trkpt>
<trkpt lat="43.128324961289763" lon="3.09696402400732"><ele></ele><time>2017-11-3T19:5:39Z</time></trkpt>
<trkpt lat="43.128139972686768" lon="3.096353989094496"><ele></ele><time>2017-11-3T19:5:42Z</time></trkpt>
<trkpt lat="43.128300989046693" lon="3.095577992498875"><ele></ele><time>2017-11-3T19:5:45Z</time></trkpt>
<trkpt lat="43.12803603708744" lon="3.095461986958981"><ele></ele><time>2017-11-3T19:5:48Z</time></trkpt>
<trkpt lat="43.127621971070766" lon="3.094906015321612"><ele></ele><time>2017-11-3T19:5:51Z</time></trkpt>
<trkpt lat="43.12715501524508" lon="3.094726977869868"><ele></ele><time>2017-11-3T19:5:54Z</time></trkpt>
<trkpt lat="43.127039009705186" lon="3.094728989526629"><ele></ele><time>2017-11-3T19:5:57Z</time></trkpt>
<trkpt lat="43.127003973349929" lon="3.094426989555359"><ele></ele><time>2017-11-3T19:6:0Z</time></trkpt>
<trkpt lat="43.126906994730234" lon="3.09419103898108"><ele></ele><time>2017-11-3T19:6:3Z</time></trkpt>
<trkpt lat="43.126831976696849" lon="3.093703966587782"><ele></ele><time>2017-11-3T19:6:6Z</time></trkpt>
<trkpt lat="43.126946976408362" lon="3.09318101964891"><ele></ele><time>2017-11-3T19:6:9Z</time></trkpt>
<trkpt lat="43.126947982236743" lon="3.092869967222214"><ele></ele><time>2017-11-3T19:6:12Z</time></trkpt>
<trkpt lat="43.127047978341579" lon="3.092825962230563"><ele></ele><time>2017-11-3T19:6:15Z</time></trkpt>
<trkpt lat="43.127432959154248" lon="3.091852990910411"><ele></ele><time>2017-11-3T19:6:18Z</time></trkpt>
<trkpt lat="43.128248015418649" lon="3.090262021869421"><ele></ele><time>2017-11-3T19:6:21Z</time></trkpt>
<trkpt lat="43.128715977072716" lon="3.08972398750484"><ele></ele><time>2017-11-3T19:6:24Z</time></trkpt>
<trkpt lat="43.128956034779549" lon="3.089520977810025"><ele></ele><time>2017-11-3T19:6:27Z</time></trkpt>
<trkpt lat="43.129205983132124" lon="3.089171033352613"><ele></ele><time>2017-11-3T19:6:30Z</time></trkpt>
<trkpt lat="43.129513012245297" lon="3.089043963700533"><ele></ele><time>2017-11-3T19:6:33Z</time></trkpt>
<trkpt lat="43.129822975024581" lon="3.089031977578998"><ele></ele><time>2017-11-3T19:6:36Z</time></trkpt>
<trkpt lat="43.130933996289968" lon="3.089652992784977"><ele></ele><time>2017-11-3T19:6:39Z</time></trkpt>
<trkpt lat="43.131029969081283" lon="3.089650981128216"><ele></ele><time>2017-11-3T19:6:42Z</time></trkpt>
<trkpt lat="43.131470018997788" lon="3.089220989495516"><ele></ele><time>2017-11-3T19:6:45Z</time></trkpt>
<trkpt lat="43.131600022315979" lon="3.089298019185662"><ele></ele><time>2017-11-3T19:6:48Z</time></trkpt>
<trkpt lat="43.131707981228828" lon="3.089514020830393"><ele></ele><time>2017-11-3T19:6:51Z</time></trkpt>
<trkpt lat="43.131865980103612" lon="3.090224973857403"><ele></ele><time>2017-11-3T19:6:54Z</time></trkpt>
<trkpt lat="43.131986008957028" lon="3.090438963845372"><ele></ele><time>2017-11-3T19:6:57Z</time></trkpt>
<trkpt lat="43.132125986739993" lon="3.090569972991943"><ele></ele><time>2017-11-3T19:7:0Z</time></trkpt>
<trkpt lat="43.132255990058184" lon="3.090572990477085"><ele></ele><time>2017-11-3T19:7:3Z</time></trkpt>
<trkpt lat="43.132313992828131" lon="3.090682039037347"><ele></ele><time>2017-11-3T19:7:6Z</time></trkpt>
<trkpt lat="43.132642982527614" lon="3.090501995757222"><ele></ele><time>2017-11-3T19:7:9Z</time></trkpt>
<trkpt lat="43.1328060105443" lon="3.090678015723825"><ele></ele><time>2017-11-3T19:7:12Z</time></trkpt>
<trkpt lat="43.132816990837455" lon="3.091727010905743"><ele></ele><time>2017-11-3T19:7:15Z</time></trkpt>
<trkpt lat="43.132938025519252" lon="3.092135963961482"><ele></ele><time>2017-11-3T19:7:18Z</time></trkpt>
<trkpt lat="43.132912963628769" lon="3.093837993219495"><ele></ele><time>2017-11-3T19:7:21Z</time></trkpt>
<trkpt lat="43.132769968360662" lon="3.09434300288558"><ele></ele><time>2017-11-3T19:7:24Z</time></trkpt>
<trkpt lat="43.13271900638938" lon="3.094846000894904"><ele></ele><time>2017-11-3T19:7:27Z</time></trkpt>
<trkpt lat="43.132566958665848" lon="3.095437008887529"><ele></ele><time>2017-11-3T19:7:30Z</time></trkpt>
<trkpt lat="43.132437039166689" lon="3.095477996394038"><ele></ele><time>2017-11-3T19:7:33Z</time></trkpt>
<trkpt lat="43.132365960627794" lon="3.095748983323574"><ele></ele><time>2017-11-3T19:7:36Z</time></trkpt>
<trkpt lat="43.132063038647175" lon="3.096144022420049"><ele></ele><time>2017-11-3T19:7:39Z</time></trkpt>
<trkpt lat="43.131861034780741" lon="3.096165983006358"><ele></ele><time>2017-11-3T19:7:42Z</time></trkpt>
<trkpt lat="43.13168996013701" lon="3.096129018813372"><ele></ele><time>2017-11-3T19:7:45Z</time></trkpt>
<trkpt lat="43.131792973726988" lon="3.096675015985966"><ele></ele><time>2017-11-3T19:7:48Z</time></trkpt>
<trkpt lat="43.132077036425471" lon="3.096909038722515"><ele></ele><time>2017-11-3T19:7:51Z</time></trkpt>
<trkpt lat="43.132064966484904" lon="3.097282033413649"><ele></ele><time>2017-11-3T19:7:54Z</time></trkpt>
<trkpt lat="43.13213998451829" lon="3.097541034221649"><ele></ele><time>2017-11-3T19:7:57Z</time></trkpt>
<trkpt lat="43.132497975602746" lon="3.09803799726069"><ele></ele><time>2017-11-3T19:8:0Z</time></trkpt>
<trkpt lat="43.132560001686215" lon="3.098237989470363"><ele></ele><time>2017-11-3T19:8:3Z</time></trkpt>
<trkpt lat="43.132753958925605" lon="3.098290041089058"><ele></ele><time>2017-11-3T19:8:6Z</time></trkpt>
<trkpt lat="43.133068028837442" lon="3.098670998588204"><ele></ele><time>2017-11-3T19:8:9Z</time></trkpt>
<trkpt lat="43.133050007745624" lon="3.098669992759824"><ele></ele><time>2017-11-3T19:8:12Z</time></trkpt>
<trkpt lat="43.133212029933929" lon="3.09876898303628"><ele></ele><time>2017-11-3T19:8:15Z</time></trkpt>
<trkpt lat="43.133791973814368" lon="3.0997349973768"><ele></ele><time>2017-11-3T19:8:18Z</time></trkpt>
<trkpt lat="43.133889958262444" lon="3.100284012034535"><ele></ele><time>2017-11-3T19:8:21Z</time></trkpt>
<trkpt lat="43.133581001311541" lon="3.100394988432527"><ele></ele><time>2017-11-3T19:8:24Z</time></trkpt>
<trkpt lat="43.132910029962659" lon="3.100048983469605"><ele></ele><time>2017-11-3T19:8:27Z</time></trkpt>
<trkpt lat="43.132644994184375" lon="3.100098017603159"><ele></ele><time>2017-11-3T19:8:30Z</time></trkpt>
<trkpt lat="43.132223971188068" lon="3.100420972332358"><ele></ele><time>2017-11-3T19:8:33Z</time></trkpt>
<trkpt lat="43.132135961204767" lon="3.100349977612495"><ele></ele><time>2017-11-3T19:8:36Z</time></trkpt>
<trkpt lat="43.131947033107281" lon="3.100481992587447"><ele></ele><time>2017-11-3T19:8:39Z</time></trkpt>
<trkpt lat="43.131792973726988" lon="3.10050998814404"><ele></ele><time>2017-11-3T19:8:42Z</time></trkpt>
<trkpt lat="43.13117497600615" lon="3.100370010361075"><ele></ele><time>2017-11-3T19:8:45Z</time></trkpt>
<trkpt lat="43.131019994616508" lon="3.100599003955722"><ele></ele><time>2017-11-3T19:8:48Z</time></trkpt>
<trkpt lat="43.131071962416172" lon="3.100944003090262"><ele></ele><time>2017-11-3T19:8:51Z</time></trkpt>
<trkpt lat="43.131400030106306" lon="3.101253965869546"><ele></ele><time>2017-11-3T19:8:54Z</time></trkpt>
<trkpt lat="43.131369017064571" lon="3.101516989991069"><ele></ele><time>2017-11-3T19:8:57Z</time></trkpt>
<trkpt lat="43.132653040811419" lon="3.102355012670159"><ele></ele><time>2017-11-3T19:9:0Z</time></trkpt>
<trkpt lat="43.132652034983039" lon="3.103127991780639"><ele></ele><time>2017-11-3T19:9:3Z</time></trkpt>
<trkpt lat="43.133110022172332" lon="3.103652028366923"><ele></ele><time>2017-11-3T19:9:6Z</time></trkpt>
<trkpt lat="43.132989993318915" lon="3.103609029203653"><ele></ele><time>2017-11-3T19:9:9Z</time></trkpt>
<trkpt lat="43.133112033829093" lon="3.10360299423337"><ele></ele><time>2017-11-3T19:9:12Z</time></trkpt>
<trkpt lat="43.133024023845792" lon="3.103767028078437"><ele></ele><time>2017-11-3T19:9:15Z</time></trkpt>
<trkpt lat="43.133209012448788" lon="3.10433398000896"><ele></ele><time>2017-11-3T19:9:18Z</time></trkpt>
<trkpt lat="43.133164001628757" lon="3.104442022740841"><ele></ele><time>2017-11-3T19:9:21Z</time></trkpt>
<trkpt lat="43.132675001397729" lon="3.104630028828979"><ele></ele><time>2017-11-3T19:9:24Z</time></trkpt>
<trkpt lat="43.132681958377361" lon="3.104710998013616"><ele></ele><time>2017-11-3T19:9:27Z</time></trkpt>
<trkpt lat="43.133152015507221" lon="3.10506303794682"><ele></ele><time>2017-11-3T19:9:30Z</time></trkpt>
<trkpt lat="43.133403975516558" lon="3.105176026001573"><ele></ele><time>2017-11-3T19:9:33Z</time></trkpt>
<trkpt lat="43.133626012131572" lon="3.105182982981205"><ele></ele><time>2017-11-3T19:9:36Z</time></trkpt>
<trkpt lat="43.133876966312528" lon="3.105285996571183"><ele></ele><time>2017-11-3T19:9:39Z</time></trkpt>
<trkpt lat="43.134425980970263" lon="3.105683969333768"><ele></ele><time>2017-11-3T19:9:42Z</time></trkpt>
<trkpt lat="43.134543998166919" lon="3.10590298846364"><ele></ele><time>2017-11-3T19:9:45Z</time></trkpt>
<trkpt lat="43.134493036195636" lon="3.106055958196521"><ele></ele><time>2017-11-3T19:9:48Z</time></trkpt>
<trkpt lat="43.134582974016666" lon="3.106040032580495"><ele></ele><time>2017-11-3T19:9:51Z</time></trkpt>
<trkpt lat="43.134624967351556" lon="3.106340020895004"><ele></ele><time>2017-11-3T19:9:54Z</time></trkpt>
<trkpt lat="43.134877011179924" lon="3.106527021154761"><ele></ele><time>2017-11-3T19:9:57Z</time></trkpt>
<trkpt lat="43.135000979527831" lon="3.106671022251248"><ele></ele><time>2017-11-3T19:10:0Z</time></trkpt>
<trkpt lat="43.135145986452699" lon="3.106616958975792"><ele></ele><time>2017-11-3T19:10:3Z</time></trkpt>
<trkpt lat="43.135991971939802" lon="3.106957012787461"><ele></ele><time>2017-11-3T19:10:6Z</time></trkpt>
<trkpt lat="43.136216020211577" lon="3.10678300447762"><ele></ele><time>2017-11-3T19:10:9Z</time></trkpt>
<trkpt lat="43.136537969112396" lon="3.106645038351417"><ele></ele><time>2017-11-3T19:10:12Z</time></trkpt>
<trkpt lat="43.136722035706043" lon="3.106620982289314"><ele></ele><time>2017-11-3T19:10:15Z</time></trkpt>
<trkpt lat="43.136897971853614" lon="3.106656018644571"><ele></ele><time>2017-11-3T19:10:18Z</time></trkpt>
<trkpt lat="43.137093018740416" lon="3.105885973200202"><ele></ele><time>2017-11-3T19:10:21Z</time></trkpt>
<trkpt lat="43.137362999841571" lon="3.105795029550791"><ele></ele><time>2017-11-3T19:10:24Z</time></trkpt>
<trkpt lat="43.137537008151412" lon="3.106007007881999"><ele></ele><time>2017-11-3T19:10:27Z</time></trkpt>
<trkpt lat="43.137603141367435" lon="3.106370028108358"><ele></ele><time>2017-11-3T19:10:30Z</time></trkpt>
<trkpt lat="43.137670112773776" lon="3.106432221829891"><ele></ele><time>2017-11-3T19:10:33Z</time></trkpt>
<trkpt lat="43.137781256809831" lon="3.106587119400501"><ele></ele><time>2017-11-3T19:10:36Z</time></trkpt>
<trkpt lat="43.138093315064907" lon="3.106928681954742"><ele></ele><time>2017-11-3T19:10:39Z</time></trkpt>
<trkpt lat="43.138207392767072" lon="3.10668476857245"><ele></ele><time>2017-11-3T19:10:42Z</time></trkpt>
<trkpt lat="43.138708043843508" lon="3.105771308764815"><ele></ele><time>2017-11-3T19:10:45Z</time></trkpt>
<trkpt lat="43.13847997225821" lon="3.105488000437617"><ele></ele><time>2017-11-3T19:10:48Z</time></trkpt>
<trkpt lat="43.138383999466896" lon="3.105261018499732"><ele></ele><time>2017-11-3T19:10:51Z</time></trkpt>
<trkpt lat="43.138362038880587" lon="3.104920964688063"><ele></ele><time>2017-11-3T19:10:54Z</time></trkpt>
<trkpt lat="43.138247039169073" lon="3.104552999138832"><ele></ele><time>2017-11-3T19:10:57Z</time></trkpt>
<trkpt lat="43.138805022463202" lon="3.103996021673083"><ele></ele><time>2017-11-3T19:11:0Z</time></trkpt>
<trkpt lat="43.139181034639478" lon="3.1035409681499"><ele></ele><time>2017-11-3T19:11:3Z</time></trkpt>
<trkpt lat="43.139412961900234" lon="3.102412009611726"><ele></ele><time>2017-11-3T19:11:6Z</time></trkpt>
<trkpt lat="43.139614965766668" lon="3.102043960243464"><ele></ele><time>2017-11-3T19:11:9Z</time></trkpt>
<trkpt lat="43.139874972403049" lon="3.101737014949322"><ele></ele><time>2017-11-3T19:11:12Z</time></trkpt>
<trkpt lat="43.139826022088528" lon="3.101447001099587"><ele></ele><time>2017-11-3T19:11:15Z</time></trkpt>
<trkpt lat="43.139459984377027" lon="3.101303000003099"><ele></ele><time>2017-11-3T19:11:18Z</time></trkpt>
<trkpt lat="43.13920802436769" lon="3.101147012785077"><ele></ele><time>2017-11-3T19:11:21Z</time></trkpt>
<trkpt lat="43.138900995254517" lon="3.101332001388073"><ele></ele><time>2017-11-3T19:11:24Z</time></trkpt>
<trkpt lat="43.138645011931658" lon="3.101643975824118"><ele></ele><time>2017-11-3T19:11:27Z</time></trkpt>
<trkpt lat="43.13832700252533" lon="3.101639030501247"><ele></ele><time>2017-11-3T19:11:30Z</time></trkpt>
<trkpt lat="43.138201022520661" lon="3.101762998849154"><ele></ele><time>2017-11-3T19:11:33Z</time></trkpt>
<trkpt lat="43.13811301253736" lon="3.101610029116273"><ele></ele><time>2017-11-3T19:11:36Z</time></trkpt>
<trkpt lat="43.137929029762745" lon="3.101493017747998"><ele></ele><time>2017-11-3T19:11:39Z</time></trkpt>
<trkpt lat="43.137687966227531" lon="3.10167096555233"><ele></ele><time>2017-11-3T19:11:42Z</time></trkpt>
<trkpt lat="43.137450003996491" lon="3.101538028568029"><ele></ele><time>2017-11-3T19:11:45Z</time></trkpt>
<trkpt lat="43.137192009016871" lon="3.101803986355662"><ele></ele><time>2017-11-3T19:11:48Z</time></trkpt>
<trkpt lat="43.137065023183823" lon="3.1017139647156"><ele></ele><time>2017-11-3T19:11:51Z</time></trkpt>
<trkpt lat="43.136536963284016" lon="3.100098017603159"><ele></ele><time>2017-11-3T19:11:54Z</time></trkpt>
<trkpt lat="43.136404026299715" lon="3.099171984940767"><ele></ele><time>2017-11-3T19:11:57Z</time></trkpt>
<trkpt lat="43.136291960254312" lon="3.098785998299718"><ele></ele><time>2017-11-3T19:12:0Z</time></trkpt>
<trkpt lat="43.135600034147501" lon="3.097844962030649"><ele></ele><time>2017-11-3T19:12:3Z</time></trkpt>
<trkpt lat="43.135295016691089" lon="3.097053961828351"><ele></ele><time>2017-11-3T19:12:6Z</time></trkpt>
<trkpt lat="43.135231984779239" lon="3.096307972446084"><ele></ele><time>2017-11-3T19:12:9Z</time></trkpt>
<trkpt lat="43.134947000071406" lon="3.096412997692823"><ele></ele><time>2017-11-3T19:12:12Z</time></trkpt>
<trkpt lat="43.134599989280105" lon="3.095790976658464"><ele></ele><time>2017-11-3T19:12:15Z</time></trkpt>
<trkpt lat="43.134362027049065" lon="3.095569023862481"><ele></ele><time>2017-11-3T19:12:18Z</time></trkpt>
<trkpt lat="43.134105037897825" lon="3.095222013071179"><ele></ele><time>2017-11-3T19:12:21Z</time></trkpt>
<trkpt lat="43.133634980767965" lon="3.093938995152712"><ele></ele><time>2017-11-3T19:12:24Z</time></trkpt>
<trkpt lat="43.133501959964633" lon="3.093712013214827"><ele></ele><time>2017-11-3T19:12:27Z</time></trkpt>
<trkpt lat="43.133248994126916" lon="3.093613022938371"><ele></ele><time>2017-11-3T19:12:30Z</time></trkpt>
<trkpt lat="43.133152015507221" lon="3.093486037105322"><ele></ele><time>2017-11-3T19:12:33Z</time></trkpt>
<trkpt lat="43.13329903408885" lon="3.092355988919735"><ele></ele><time>2017-11-3T19:12:36Z</time></trkpt>
<trkpt lat="43.133505983278155" lon="3.091887021437287"><ele></ele><time>2017-11-3T19:12:39Z</time></trkpt>
<trkpt lat="43.133821981027722" lon="3.091572029516101"><ele></ele><time>2017-11-3T19:12:42Z</time></trkpt>
<trkpt lat="43.133812006562948" lon="3.090335028246045"><ele></ele><time>2017-11-3T19:12:45Z</time></trkpt>
<trkpt lat="43.13342803157866" lon="3.090058006346226"><ele></ele><time>2017-11-3T19:12:48Z</time></trkpt>
<trkpt lat="43.133084960281849" lon="3.09023997746408"><ele></ele><time>2017-11-3T19:12:51Z</time></trkpt>
<trkpt lat="43.132887985557318" lon="3.090216005221009"><ele></ele><time>2017-11-3T19:12:54Z</time></trkpt>
<trkpt lat="43.132747001945972" lon="3.090380039066076"><ele></ele><time>2017-11-3T19:12:57Z</time></trkpt>
<trkpt lat="43.132737027481198" lon="3.090576007962227"><ele></ele><time>2017-11-3T19:13:0Z</time></trkpt>
<trkpt lat="43.132457993924618" lon="3.090039985254407"><ele></ele><time>2017-11-3T19:13:3Z</time></trkpt>
<trkpt lat="43.13235498033464" lon="3.089564982801676"><ele></ele><time>2017-11-3T19:13:6Z</time></trkpt>
<trkpt lat="43.132383981719613" lon="3.089267006143928"><ele></ele><time>2017-11-3T19:13:9Z</time></trkpt>
<trkpt lat="43.132091034203768" lon="3.087694980204105"><ele></ele><time>2017-11-3T19:13:12Z</time></trkpt>
<trkpt lat="43.131980979815125" lon="3.087529018521309"><ele></ele><time>2017-11-3T19:13:15Z</time></trkpt>
<trkpt lat="43.13196798786521" lon="3.087181001901627"><ele></ele><time>2017-11-3T19:13:18Z</time></trkpt>
<trkpt lat="43.131756009534001" lon="3.086937004700303"><ele></ele><time>2017-11-3T19:13:21Z</time></trkpt>
<trkpt lat="43.131424002349377" lon="3.086906997486949"><ele></ele><time>2017-11-3T19:13:24Z</time></trkpt>
<trkpt lat="43.131268015131354" lon="3.086946979165077"><ele></ele><time>2017-11-3T19:13:27Z</time></trkpt>
<trkpt lat="43.130954029038548" lon="3.086724020540714"><ele></ele><time>2017-11-3T19:13:30Z</time></trkpt>
<trkpt lat="43.130637025460601" lon="3.086640033870935"><ele></ele><time>2017-11-3T19:13:33Z</time></trkpt>
<trkpt lat="43.130625039339066" lon="3.085924973711371"><ele></ele><time>2017-11-3T19:13:36Z</time></trkpt>
<trkpt lat="43.130540968850255" lon="3.085263976827264"><ele></ele><time>2017-11-3T19:13:39Z</time></trkpt>
<trkpt lat="43.130548009648919" lon="3.084827028214932"><ele></ele><time>2017-11-3T19:13:42Z</time></trkpt>
<trkpt lat="43.129997989162803" lon="3.084126971662045"><ele></ele><time>2017-11-3T19:13:45Z</time></trkpt>
<trkpt lat="43.130469974130392" lon="3.083111001178622"><ele></ele><time>2017-11-3T19:13:48Z</time></trkpt>
<trkpt lat="43.130483971908689" lon="3.082716967910528"><ele></ele><time>2017-11-3T19:13:51Z</time></trkpt>
<trkpt lat="43.130259001627564" lon="3.082559974864125"><ele></ele><time>2017-11-3T19:13:54Z</time></trkpt>
<trkpt lat="43.129806965589523" lon="3.082494009286165"><ele></ele><time>2017-11-3T19:13:57Z</time></trkpt>
<trkpt lat="43.129621976986527" lon="3.082235008478165"><ele></ele><time>2017-11-3T19:14:0Z</time></trkpt>
<trkpt lat="43.129263985902071" lon="3.081977013498545"><ele></ele><time>2017-11-3T19:14:3Z</time></trkpt>
<trkpt lat="43.129032980650663" lon="3.080923995003104"><ele></ele><time>2017-11-3T19:14:6Z</time></trkpt>
<trkpt lat="43.129081008955836" lon="3.080716961994767"><ele></ele><time>2017-11-3T19:14:9Z</time></trkpt>
<trkpt lat="43.128984030336142" lon="3.079613987356424"><ele></ele><time>2017-11-3T19:14:12Z</time></trkpt>
<trkpt lat="43.129100035876036" lon="3.07943201623857"><ele></ele><time>2017-11-3T19:14:15Z</time></trkpt>
<trkpt lat="43.129139011725783" lon="3.078076997771859"><ele></ele><time>2017-11-3T19:14:18Z</time></trkpt>
<trkpt lat="43.129031974822283" lon="3.077573999762535"><ele></ele><time>2017-11-3T19:14:21Z</time></trkpt>
<trkpt lat="43.129015965387225" lon="3.076932029798627"><ele></ele><time>2017-11-3T19:14:24Z</time></trkpt>
<trkpt lat="43.129521980881691" lon="3.077064966782928"><ele></ele><time>2017-11-3T19:14:27Z</time></trkpt>
<trkpt lat="43.129661958664656" lon="3.07670303620398"><ele></ele><time>2017-11-3T19:14:30Z</time></trkpt>
<trkpt lat="43.129813000559807" lon="3.076546965166926"><ele></ele><time>2017-11-3T19:14:33Z</time></trkpt>
<trkpt lat="43.129813000559807" lon="3.07625200599432"><ele></ele><time>2017-11-3T19:14:36Z</time></trkpt>
<trkpt lat="43.130081975832582" lon="3.075284985825419"><ele></ele><time>2017-11-3T19:14:39Z</time></trkpt>
<trkpt lat="43.130397973582149" lon="3.075006036087871"><ele></ele><time>2017-11-3T19:14:42Z</time></trkpt>
<trkpt lat="43.130580028519034" lon="3.075024979189038"><ele></ele><time>2017-11-3T19:14:45Z</time></trkpt>
<trkpt lat="43.131837984547019" lon="3.075519008561969"><ele></ele><time>2017-11-3T19:14:48Z</time></trkpt>
<trkpt lat="43.132047029212117" lon="3.075159005820751"><ele></ele><time>2017-11-3T19:14:51Z</time></trkpt>
<trkpt lat="43.131830021739006" lon="3.074642010033131"><ele></ele><time>2017-11-3T19:14:54Z</time></trkpt>
<trkpt lat="43.131438000127673" lon="3.073196969926357"><ele></ele><time>2017-11-3T19:14:57Z</time></trkpt>
<trkpt lat="43.131473958492279" lon="3.072379985824227"><ele></ele><time>2017-11-3T19:15:0Z</time></trkpt>
<trkpt lat="43.131218980997801" lon="3.071205010637641"><ele></ele><time>2017-11-3T19:15:3Z</time></trkpt>
<trkpt lat="43.130708020180464" lon="3.070357013493776"><ele></ele><time>2017-11-3T19:15:6Z</time></trkpt>
<trkpt lat="43.130583968013525" lon="3.069041976705194"><ele></ele><time>2017-11-3T19:15:9Z</time></trkpt>
<trkpt lat="43.130342988297343" lon="3.068736959248781"><ele></ele><time>2017-11-3T19:15:12Z</time></trkpt>
<trkpt lat="43.130064038559794" lon="3.068631011992693"><ele></ele><time>2017-11-3T19:15:15Z</time></trkpt>
<trkpt lat="43.129915008321404" lon="3.06847401894629"><ele></ele><time>2017-11-3T19:15:18Z</time></trkpt>
<trkpt lat="43.129736976698041" lon="3.068101024255157"><ele></ele><time>2017-11-3T19:15:21Z</time></trkpt>
<trkpt lat="43.129728008061647" lon="3.067559972405434"><ele></ele><time>2017-11-3T19:15:24Z</time></trkpt>
<trkpt lat="43.129466995596886" lon="3.066859999671578"><ele></ele><time>2017-11-3T19:15:27Z</time></trkpt>
<trkpt lat="43.129230039194226" lon="3.066580966114998"><ele></ele><time>2017-11-3T19:15:30Z</time></trkpt>
<trkpt lat="43.129152003675699" lon="3.066391032189131"><ele></ele><time>2017-11-3T19:15:33Z</time></trkpt>
<trkpt lat="43.129245964810252" lon="3.065933967009187"><ele></ele><time>2017-11-3T19:15:36Z</time></trkpt>
<trkpt lat="43.129402035847306" lon="3.065813016146421"><ele></ele><time>2017-11-3T19:15:39Z</time></trkpt>
<trkpt lat="43.129679979756474" lon="3.06594000197947"><ele></ele><time>2017-11-3T19:15:42Z</time></trkpt>
<trkpt lat="43.129807971417904" lon="3.06585299782455"><ele></ele><time>2017-11-3T19:15:45Z</time></trkpt>
<trkpt lat="43.13029202632606" lon="3.064615996554494"><ele></ele><time>2017-11-3T19:15:48Z</time></trkpt>
<trkpt lat="43.130664015188813" lon="3.063014969229698"><ele></ele><time>2017-11-3T19:15:51Z</time></trkpt>
<trkpt lat="43.130482966080308" lon="3.062728978693485"><ele></ele><time>2017-11-3T19:15:54Z</time></trkpt>
<trkpt lat="43.129759021103382" lon="3.062663013115525"><ele></ele><time>2017-11-3T19:15:57Z</time></trkpt>
<trkpt lat="43.12921998091042" lon="3.062738031148911"><ele></ele><time>2017-11-3T19:16:0Z</time></trkpt>
<trkpt lat="43.128730980679393" lon="3.06327598169446"><ele></ele><time>2017-11-3T19:16:3Z</time></trkpt>
<trkpt lat="43.128854027017951" lon="3.063519978895783"><ele></ele><time>2017-11-3T19:16:6Z</time></trkpt>
<trkpt lat="43.128369972109795" lon="3.063467005267739"><ele></ele><time>2017-11-3T19:16:9Z</time></trkpt>
<trkpt lat="43.128151958808303" lon="3.063398022204638"><ele></ele><time>2017-11-3T19:16:12Z</time></trkpt>
<trkpt lat="43.127317959442735" lon="3.062207959592342"><ele></ele><time>2017-11-3T19:16:15Z</time></trkpt>
<trkpt lat="43.127101035788655" lon="3.062740964815021"><ele></ele><time>2017-11-3T19:16:18Z</time></trkpt>
<trkpt lat="43.126847986131907" lon="3.062726967036724"><ele></ele><time>2017-11-3T19:16:21Z</time></trkpt>
<trkpt lat="43.126629972830415" lon="3.06239596568048"><ele></ele><time>2017-11-3T19:16:24Z</time></trkpt>
<trkpt lat="43.126354040578008" lon="3.062250958755612"><ele></ele><time>2017-11-3T19:16:27Z</time></trkpt>
<trkpt lat="43.126331996172667" lon="3.062077034264803"><ele></ele><time>2017-11-3T19:16:30Z</time></trkpt>
<trkpt lat="43.126226970925927" lon="3.061936972662807"><ele></ele><time>2017-11-3T19:16:33Z</time></trkpt>
<trkpt lat="43.126020021736622" lon="3.062156997621059"><ele></ele><time>2017-11-3T19:16:36Z</time></trkpt>
<trkpt lat="43.125784993171692" lon="3.062220029532909"><ele></ele><time>2017-11-3T19:16:39Z</time></trkpt>
<trkpt lat="43.124614963307977" lon="3.061608988791704"><ele></ele><time>2017-11-3T19:16:42Z</time></trkpt>
<trkpt lat="43.123921025544405" lon="3.061176985502243"><ele></ele><time>2017-11-3T19:16:45Z</time></trkpt>
<trkpt lat="43.12322499230504" lon="3.061065003275871"><ele></ele><time>2017-11-3T19:16:48Z</time></trkpt>
<trkpt lat="43.122456958517432" lon="3.061388963833451"><ele></ele><time>2017-11-3T19:16:51Z</time></trkpt>
<trkpt lat="43.12195697799325" lon="3.062108969315887"><ele></ele><time>2017-11-3T19:16:54Z</time></trkpt>
<trkpt lat="43.121538972482085" lon="3.062365958467126"><ele></ele><time>2017-11-3T19:16:57Z</time></trkpt>
<trkpt lat="43.121254993602633" lon="3.062208965420723"><ele></ele><time>2017-11-3T19:17:0Z</time></trkpt>
<trkpt lat="43.121100012212992" lon="3.061847034841776"><ele></ele><time>2017-11-3T19:17:3Z</time></trkpt>
<trkpt lat="43.121059024706483" lon="3.060853024944663"><ele></ele><time>2017-11-3T19:17:6Z</time></trkpt>
<trkpt lat="43.120938995853066" lon="3.06052403524518"><ele></ele><time>2017-11-3T19:17:9Z</time></trkpt>
<trkpt lat="43.120760964229703" lon="3.06056703440845"><ele></ele><time>2017-11-3T19:17:12Z</time></trkpt>
<trkpt lat="43.120678989216685" lon="3.060471983626485"><ele></ele><time>2017-11-3T19:17:15Z</time></trkpt>
<trkpt lat="43.120458964258432" lon="3.060467960312963"><ele></ele><time>2017-11-3T19:17:18Z</time></trkpt>
<trkpt lat="43.120239023119211" lon="3.059599008411169"><ele></ele><time>2017-11-3T19:17:21Z</time></trkpt>
<trkpt lat="43.119949009269476" lon="3.057782985270023"><ele></ele><time>2017-11-3T19:17:24Z</time></trkpt>
<trkpt lat="43.119808025658131" lon="3.057763958349824"><ele></ele><time>2017-11-3T19:17:27Z</time></trkpt>
<trkpt lat="43.119116015732288" lon="3.058296963572502"><ele></ele><time>2017-11-3T19:17:30Z</time></trkpt>
<trkpt lat="43.118807980790734" lon="3.058470971882343"><ele></ele><time>2017-11-3T19:17:33Z</time></trkpt>
<trkpt lat="43.118559960275888" lon="3.058759979903698"><ele></ele><time>2017-11-3T19:17:36Z</time></trkpt>
<trkpt lat="43.118275981396437" lon="3.059599008411169"><ele></ele><time>2017-11-3T19:17:39Z</time></trkpt>
<trkpt lat="43.118255026638508" lon="3.059878963977099"><ele></ele><time>2017-11-3T19:17:42Z</time></trkpt>
<trkpt lat="43.118101973086596" lon="3.060076022520661"><ele></ele><time>2017-11-3T19:17:45Z</time></trkpt>
<trkpt lat="43.118168022483587" lon="3.06048396974802"><ele></ele><time>2017-11-3T19:17:48Z</time></trkpt>
<trkpt lat="43.11813198029995" lon="3.06028900668025"><ele></ele><time>2017-11-3T19:17:51Z</time></trkpt>
<trkpt lat="43.118211021646857" lon="3.059976026415825"><ele></ele><time>2017-11-3T19:17:54Z</time></trkpt>
<trkpt lat="43.118276987224817" lon="3.05990201421082"><ele></ele><time>2017-11-3T19:17:57Z</time></trkpt>
<trkpt lat="43.118385029956698" lon="3.060020031407476"><ele></ele><time>2017-11-3T19:18:0Z</time></trkpt>
<trkpt lat="43.11851897276938" lon="3.060556976124644"><ele></ele><time>2017-11-3T19:18:3Z</time></trkpt>
<trkpt lat="43.118565995246172" lon="3.061066009104252"><ele></ele><time>2017-11-3T19:18:6Z</time></trkpt>
<trkpt lat="43.118835976347327" lon="3.061756007373333"><ele></ele><time>2017-11-3T19:18:9Z</time></trkpt>
<trkpt lat="43.119005039334297" lon="3.061939990147948"><ele></ele><time>2017-11-3T19:18:12Z</time></trkpt>
<trkpt lat="43.119107969105244" lon="3.062188010662794"><ele></ele><time>2017-11-3T19:18:15Z</time></trkpt>
<trkpt lat="43.119189022108912" lon="3.062674999237061"><ele></ele><time>2017-11-3T19:18:18Z</time></trkpt>
<trkpt lat="43.119122972711921" lon="3.064734013751149"><ele></ele><time>2017-11-3T19:18:21Z</time></trkpt>
<trkpt lat="43.119000010192394" lon="3.064977005124092"><ele></ele><time>2017-11-3T19:18:24Z</time></trkpt>
<trkpt lat="43.11886103823781" lon="3.064056001603603"><ele></ele><time>2017-11-3T19:18:27Z</time></trkpt>
<trkpt lat="43.118483014404774" lon="3.06267399340868"><ele></ele><time>2017-11-3T19:18:30Z</time></trkpt>
<trkpt lat="43.11810901388526" lon="3.061948958784342"><ele></ele><time>2017-11-3T19:18:33Z</time></trkpt>
<trkpt lat="43.117923019453883" lon="3.061742009595037"><ele></ele><time>2017-11-3T19:18:36Z</time></trkpt>
<trkpt lat="43.11785202473402" lon="3.062404012307525"><ele></ele><time>2017-11-3T19:18:39Z</time></trkpt>
<trkpt lat="43.117717998102307" lon="3.0626539606601"><ele></ele><time>2017-11-3T19:18:42Z</time></trkpt>
<trkpt lat="43.117567962035537" lon="3.062568968161941"><ele></ele><time>2017-11-3T19:18:45Z</time></trkpt>
<trkpt lat="43.117495039477944" lon="3.06213797070086"><ele></ele><time>2017-11-3T19:18:48Z</time></trkpt>
<trkpt lat="43.117512976750731" lon="3.061759024858475"><ele></ele><time>2017-11-3T19:18:51Z</time></trkpt>
<trkpt lat="43.117322959005833" lon="3.061242029070854"><ele></ele><time>2017-11-3T19:18:54Z</time></trkpt>
<trkpt lat="43.117089020088315" lon="3.061606977134943"><ele></ele><time>2017-11-3T19:18:57Z</time></trkpt>
<trkpt lat="43.116784002631903" lon="3.061648970469832"><ele></ele><time>2017-11-3T19:19:0Z</time></trkpt>
<trkpt lat="43.116590967401862" lon="3.06192196905613"><ele></ele><time>2017-11-3T19:19:3Z</time></trkpt>
<trkpt lat="43.116429029032588" lon="3.062670975923538"><ele></ele><time>2017-11-3T19:19:6Z</time></trkpt>
<trkpt lat="43.116426011547446" lon="3.063089987263084"><ele></ele><time>2017-11-3T19:19:9Z</time></trkpt>
<trkpt lat="43.116299025714397" lon="3.063193000853062"><ele></ele><time>2017-11-3T19:19:12Z</time></trkpt>
<trkpt lat="43.117062030360103" lon="3.064418016001582"><ele></ele><time>2017-11-3T19:19:15Z</time></trkpt>
<trkpt lat="43.117158003151417" lon="3.064663019031286"><ele></ele><time>2017-11-3T19:19:18Z</time></trkpt>
<trkpt lat="43.116814009845257" lon="3.065626015886664"><ele></ele><time>2017-11-3T19:19:21Z</time></trkpt>
<trkpt lat="43.116513015702367" lon="3.0658970028162"><ele></ele><time>2017-11-3T19:19:24Z</time></trkpt>
<trkpt lat="43.11585302464664" lon="3.065880993381143"><ele></ele><time>2017-11-3T19:19:27Z</time></trkpt>
<trkpt lat="43.115756968036294" lon="3.065774040296674"><ele></ele><time>2017-11-3T19:19:30Z</time></trkpt>
<trkpt lat="43.115761997178197" lon="3.065442033112049"><ele></ele><time>2017-11-3T19:19:33Z</time></trkpt>
<trkpt lat="43.115605004131794" lon="3.065132992342114"><ele></ele><time>2017-11-3T19:19:36Z</time></trkpt>
<trkpt lat="43.115396965295076" lon="3.064998965710402"><ele></ele><time>2017-11-3T19:19:39Z</time></trkpt>
<trkpt lat="43.115053977817297" lon="3.064408963546157"><ele></ele><time>2017-11-3T19:19:42Z</time></trkpt>
<trkpt lat="43.114767987281084" lon="3.064039992168546"><ele></ele><time>2017-11-3T19:19:45Z</time></trkpt>
<trkpt lat="43.114873012527823" lon="3.063853997737169"><ele></ele><time>2017-11-3T19:19:48Z</time></trkpt>
<trkpt lat="43.114927997812629" lon="3.063473040238023"><ele></ele><time>2017-11-3T19:19:51Z</time></trkpt>
<trkpt lat="43.114290973171592" lon="3.063113959506154"><ele></ele><time>2017-11-3T19:19:54Z</time></trkpt>
<trkpt lat="43.114158036187291" lon="3.06325301527977"><ele></ele><time>2017-11-3T19:19:57Z</time></trkpt>
<trkpt lat="43.114175973460078" lon="3.063945025205612"><ele></ele><time>2017-11-3T19:20:0Z</time></trkpt>
<trkpt lat="43.113926025107503" lon="3.064196985214949"><ele></ele><time>2017-11-3T19:20:3Z</time></trkpt>
<trkpt lat="43.113209037110209" lon="3.064570985734463"><ele></ele><time>2017-11-3T19:20:6Z</time></trkpt>
<trkpt lat="43.112937966361642" lon="3.065012041479349"><ele></ele><time>2017-11-3T19:20:9Z</time></trkpt>
<trkpt lat="43.112508980557323" lon="3.065325021743774"><ele></ele><time>2017-11-3T19:20:12Z</time></trkpt>
<trkpt lat="43.112262971699238" lon="3.06585299782455"><ele></ele><time>2017-11-3T19:20:15Z</time></trkpt>
<trkpt lat="43.112365985289216" lon="3.066507037729025"><ele></ele><time>2017-11-3T19:20:18Z</time></trkpt>
<trkpt lat="43.112663961946964" lon="3.066922025755048"><ele></ele><time>2017-11-3T19:20:21Z</time></trkpt>
<trkpt lat="43.112772004678845" lon="3.067428963258863"><ele></ele><time>2017-11-3T19:20:24Z</time></trkpt>
<trkpt lat="43.112624818459153" lon="3.06792869232595"><ele></ele><time>2017-11-3T19:20:27Z</time></trkpt>
<trkpt lat="43.112955819815397" lon="3.068791357800365"><ele></ele><time>2017-11-3T19:20:30Z</time></trkpt>
<trkpt lat="43.114180248230696" lon="3.07040118612349"><ele></ele><time>2017-11-3T19:20:33Z</time></trkpt>
<trkpt lat="43.115298645570874" lon="3.071089927107096"><ele></ele><time>2017-11-3T19:20:36Z</time></trkpt>
<trkpt lat="43.116170363500714" lon="3.071714295074344"><ele></ele><time>2017-11-3T19:20:39Z</time></trkpt>
<trkpt lat="43.11641444452107" lon="3.072146633639932"><ele></ele><time>2017-11-3T19:20:42Z</time></trkpt>
<trkpt lat="43.116699093952775" lon="3.073223372921348"><ele></ele><time>2017-11-3T19:20:45Z</time></trkpt>
<trkpt lat="43.116425676271319" lon="3.077052477747202"><ele></ele><time>2017-11-3T19:20:48Z</time></trkpt>
<trkpt lat="43.116574035957456" lon="3.078342117369175"><ele></ele><time>2017-11-3T19:20:51Z</time></trkpt>
<trkpt lat="43.116945438086987" lon="3.079849267378449"><ele></ele><time>2017-11-3T19:20:54Z</time></trkpt>
<trkpt lat="43.117309799417853" lon="3.08236819691956"><ele></ele><time>2017-11-3T19:20:57Z</time></trkpt>
<trkpt lat="43.117304015904665" lon="3.08319590985775"><ele></ele><time>2017-11-3T19:21:0Z</time></trkpt>
<trkpt lat="43.117209048941731" lon="3.083930583670735"><ele></ele><time>2017-11-3T19:21:3Z</time></trkpt>
<trkpt lat="43.116979384794831" lon="3.084663413465023"><ele></ele><time>2017-11-3T19:21:6Z</time></trkpt>
<trkpt lat="43.116815770044923" lon="3.085581148043275"><ele></ele><time>2017-11-3T19:21:9Z</time></trkpt>
<trkpt lat="43.116781488060951" lon="3.087267084047198"><ele></ele><time>2017-11-3T19:21:12Z</time></trkpt>
<trkpt lat="43.116483930498362" lon="3.088060347363353"><ele></ele><time>2017-11-3T19:21:15Z</time></trkpt>
<trkpt lat="43.116344707086682" lon="3.088702401146293"><ele></ele><time>2017-11-3T19:21:18Z</time></trkpt>
<trkpt lat="43.115433594211936" lon="3.090499481186271"><ele></ele><time>2017-11-3T19:21:21Z</time></trkpt>
<trkpt lat="43.114684922620654" lon="3.091562725603581"><ele></ele><time>2017-11-3T19:21:24Z</time></trkpt>
<trkpt lat="43.114525331184268" lon="3.09189791791141"><ele></ele><time>2017-11-3T19:21:27Z</time></trkpt>
<trkpt lat="43.114254344254732" lon="3.09210897423327"><ele></ele><time>2017-11-3T19:21:30Z</time></trkpt>
<trkpt lat="43.114185445010662" lon="3.092322712764144"><ele></ele><time>2017-11-3T19:21:33Z</time></trkpt>
<trkpt lat="43.11451711691916" lon="3.093062834814191"><ele></ele><time>2017-11-3T19:21:36Z</time></trkpt>
<trkpt lat="43.114606300368905" lon="3.093156041577458"><ele></ele><time>2017-11-3T19:21:39Z</time></trkpt>
<trkpt lat="43.115350529551506" lon="3.092736527323723"><ele></ele><time>2017-11-3T19:21:42Z</time></trkpt>
<trkpt lat="43.118777135387063" lon="3.094161283224821"><ele></ele><time>2017-11-3T19:21:45Z</time></trkpt>
<trkpt lat="43.119673328474164" lon="3.094479711726308"><ele></ele><time>2017-11-3T19:21:48Z</time></trkpt>
<trkpt lat="43.1202775798738" lon="3.094794284552336"><ele></ele><time>2017-11-3T19:21:51Z</time></trkpt>
<trkpt lat="43.120456784963608" lon="3.094857987016439"><ele></ele><time>2017-11-3T19:21:54Z</time></trkpt>
<trkpt lat="43.120817206799984" lon="3.094709375873208"><ele></ele><time>2017-11-3T19:21:57Z</time></trkpt>
<trkpt lat="43.121288269758224" lon="3.094807611778379"><ele></ele><time>2017-11-3T19:22:0Z</time></trkpt>
<trkpt lat="43.122542537748814" lon="3.095314716920257"><ele></ele><time>2017-11-3T19:22:3Z</time></trkpt>
<trkpt lat="43.123754896223545" lon="3.095391998067498"><ele></ele><time>2017-11-3T19:22:6Z</time></trkpt>
</trkseg></trk></gpx>